Time;durP1;ratioP1;P1;durP2;ratioP2;P2;SDS_P1;SDS_P2;PMS_P1;PMS_P2;Temp;Humidity;BMP_temperature;BMP_pressure;BME280_temperature;BME280_humidity;BME280_pressure;Samples;Min_cycle;Max_cycle;Signal;HPM_P1;HPM_P2
2022/10/25 00:01:19;;;;;;;14.50;2.20;;;16.10;99.90;;;;;;5047684;28;20045;-84
2022/10/25 00:03:46;;;;;;;13.13;2.45;;;16.10;99.90;;;;;;5046671;28;20041;-83
2022/10/25 00:06:13;;;;;;;12.30;2.40;;;16.10;99.90;;;;;;5044824;28;20055;-83
2022/10/25 00:08:40;;;;;;;16.20;2.50;;;16.10;99.90;;;;;;5038652;28;20042;-85
2022/10/25 00:11:08;;;;;;;11.75;2.08;;;16.10;99.90;;;;;;5046135;28;20044;-84
2022/10/25 00:13:35;;;;;;;8.98;2.33;;;16.10;99.90;;;;;;5051827;28;20044;-84
2022/10/25 00:16:02;;;;;;;11.73;2.00;;;16.00;99.90;;;;;;5038178;28;20037;-84
2022/10/25 00:18:30;;;;;;;15.48;2.67;;;16.10;99.90;;;;;;5051583;28;20433;-84
2022/10/25 00:20:57;;;;;;;13.13;2.42;;;16.00;99.90;;;;;;5052504;28;20045;-84
2022/10/25 00:23:24;;;;;;;12.02;1.98;;;16.00;99.90;;;;;;5052318;28;20743;-84
2022/10/25 00:26:00;;;;;;;10.60;1.77;;;16.00;99.90;;;;;;5049971;28;20044;-84
2022/10/25 00:28:27;;;;;;;9.35;2.30;;;16.00;99.90;;;;;;5051028;28;20041;-84
2022/10/25 00:31:00;;;;;;;9.32;2.10;;;16.00;99.90;;;;;;5050960;28;20049;-84
2022/10/25 00:33:30;;;;;;;9.80;1.90;;;16.00;99.90;;;;;;5032362;28;20047;-84
2022/10/25 00:36:04;;;;;;;9.73;1.88;;;16.00;99.90;;;;;;5047148;28;20107;-84
2022/10/25 00:38:31;;;;;;;14.90;2.22;;;16.00;99.90;;;;;;5051554;28;20055;-84
2022/10/25 00:40:58;;;;;;;8.27;2.00;;;16.00;99.90;;;;;;5051921;28;20053;-84
2022/10/25 00:43:35;;;;;;;11.52;2.72;;;16.10;99.90;;;;;;5051421;28;20045;-84
2022/10/25 00:46:05;;;;;;;13.00;2.55;;;16.10;99.90;;;;;;5043428;28;20047;-84
2022/10/25 00:48:33;;;;;;;9.40;2.20;;;16.10;99.90;;;;;;5051242;28;20124;-83
2022/10/25 00:51:01;;;;;;;11.40;2.30;;;16.10;99.90;;;;;;5040174;28;20493;-84
2022/10/25 00:53:32;;;;;;;14.77;2.47;;;16.10;99.90;;;;;;5045846;28;20041;-84
2022/10/25 00:56:02;;;;;;;16.67;2.65;;;16.10;99.90;;;;;;5031316;28;20041;-84
2022/10/25 00:58:31;;;;;;;9.38;2.03;;;16.10;99.90;;;;;;5043721;28;20080;-84
2022/10/25 01:00:58;;;;;;;13.20;2.22;;;16.10;99.90;;;;;;5044518;28;20390;-84
2022/10/25 01:03:26;;;;;;;8.95;2.00;;;16.10;99.90;;;;;;5051815;28;20045;-84
2022/10/25 01:05:54;;;;;;;8.25;2.00;;;16.10;99.90;;;;;;5033529;28;20059;-85
2022/10/25 01:08:22;;;;;;;11.27;2.15;;;16.00;99.90;;;;;;5041523;28;20041;-84
2022/10/25 01:10:50;;;;;;;11.15;2.30;;;16.10;99.90;;;;;;5050072;28;20049;-84
2022/10/25 01:13:16;;;;;;;11.45;1.92;;;16.10;99.90;;;;;;5049256;28;20029;-84
2022/10/25 01:15:51;;;;;;;11.40;2.40;;;16.10;99.90;;;;;;5047641;28;20041;-84
2022/10/25 01:18:24;;;;;;;14.52;2.42;;;16.10;99.90;;;;;;5038804;28;20045;-84
2022/10/25 01:21:19;;;;;;;13.50;1.92;;;16.00;99.90;;;;;;5041597;28;20052;-84
2022/10/25 01:24:18;;;;;;;10.45;1.85;;;16.10;99.90;;;;;;5045802;28;20489;-85
2022/10/25 01:27:10;;;;;;;13.25;2.22;;;16.10;99.90;;;;;;5049369;28;20044;-84
2022/10/25 01:30:04;;;;;;;11.10;2.20;;;16.10;99.90;;;;;;5043508;28;20086;-84
2022/10/25 01:32:38;;;;;;;11.98;2.10;;;16.20;99.90;;;;;;5050387;28;20037;-84
2022/10/25 01:35:13;;;;;;;10.35;2.03;;;16.10;99.90;;;;;;5047128;28;20045;-84
2022/10/25 01:37:45;;;;;;;15.23;2.40;;;16.10;99.90;;;;;;5047153;28;20041;-84
2022/10/25 01:40:18;;;;;;;10.65;1.90;;;16.10;99.90;;;;;;5050779;28;20045;-84
2022/10/25 01:42:50;;;;;;;14.93;2.20;;;16.10;99.90;;;;;;5031584;28;20045;-84
2022/10/25 01:45:23;;;;;;;12.40;1.95;;;16.10;99.90;;;;;;5012103;28;20136;-84
2022/10/25 01:47:53;;;;;;;15.30;2.60;;;16.10;99.90;;;;;;5027208;28;20059;-84
2022/10/25 01:50:24;;;;;;;8.60;2.70;;;16.10;99.90;;;;;;5041257;28;20045;-84
2022/10/25 01:52:51;;;;;;;12.60;1.95;;;16.10;99.90;;;;;;5049071;28;20044;-84
2022/10/25 01:55:18;;;;;;;6.63;1.63;;;16.10;99.90;;;;;;5033609;28;20041;-84
2022/10/25 01:57:57;;;;;;;10.68;1.90;;;16.10;99.90;;;;;;5047820;28;20043;-85
2022/10/25 02:00:24;;;;;;;12.35;2.38;;;16.10;99.90;;;;;;5043030;28;20069;-84
2022/10/25 02:03:01;;;;;;;12.68;2.03;;;16.10;99.90;;;;;;5049629;28;20037;-84
2022/10/25 02:05:33;;;;;;;9.88;1.80;;;16.10;99.90;;;;;;5040043;28;20041;-84
2022/10/25 02:08:04;;;;;;;11.40;2.22;;;16.20;99.90;;;;;;5043348;28;20058;-84
2022/10/25 02:10:35;;;;;;;7.00;1.70;;;16.20;99.90;;;;;;5043735;28;20055;-84
2022/10/25 02:13:04;;;;;;;14.70;2.30;;;16.20;99.90;;;;;;5049758;28;20640;-84
2022/10/25 02:15:37;;;;;;;9.20;2.17;;;16.20;99.90;;;;;;5048741;28;20041;-84
2022/10/25 02:18:07;;;;;;;11.13;2.03;;;16.20;99.90;;;;;;5044880;28;20048;-85
2022/10/25 02:20:36;;;;;;;12.75;2.00;;;16.20;99.90;;;;;;5048202;28;20052;-84
2022/10/25 02:23:05;;;;;;;12.95;2.42;;;16.10;99.90;;;;;;5049434;28;20033;-84
2022/10/25 02:25:33;;;;;;;13.70;1.83;;;16.20;99.90;;;;;;5040697;22;20050;-87
2022/10/25 02:28:00;;;;;;;12.68;2.17;;;16.20;99.90;;;;;;5007838;28;20486;-87
2022/10/25 02:30:27;;;;;;;9.27;2.15;;;16.20;99.90;;;;;;5009318;28;20124;-86
2022/10/25 02:32:54;;;;;;;10.68;1.90;;;16.10;99.90;;;;;;5009828;28;20038;-87
2022/10/25 02:35:23;;;;;;;12.45;2.33;;;16.30;99.90;;;;;;5006739;28;20049;-87
2022/10/25 02:37:49;;;;;;;12.75;2.08;;;16.10;99.90;;;;;;5008765;28;20501;-86
2022/10/25 02:40:16;;;;;;;9.27;1.83;;;16.10;99.90;;;;;;5025022;28;20033;-87
2022/10/25 02:46:24;;;;;;;10.00;1.63;;;16.10;99.90;;;;;;5002714;28;20025;-87
2022/10/25 02:48:51;;;;;;;7.03;2.17;;;16.10;99.90;;;;;;5015787;28;20176;-87
2022/10/25 02:51:20;;;;;;;11.38;1.98;;;16.10;99.90;;;;;;5023860;28;20058;-87
2022/10/25 02:53:47;;;;;;;16.83;2.35;;;16.10;99.90;;;;;;5006804;28;20038;-87
2022/10/25 02:56:16;;;;;;;10.25;2.17;;;16.10;99.90;;;;;;5007078;28;20042;-87
2022/10/25 02:58:44;;;;;;;10.48;2.05;;;16.20;99.90;;;;;;5006453;28;20046;-87
2022/10/25 03:01:11;;;;;;;9.55;1.98;;;16.20;99.90;;;;;;5019870;28;20041;-87
2022/10/25 03:03:38;;;;;;;10.75;2.53;;;16.10;99.90;;;;;;5012758;28;20046;-87
2022/10/25 03:06:05;;;;;;;7.43;1.52;;;16.10;99.90;;;;;;5008567;28;20054;-87
2022/10/25 03:08:34;;;;;;;12.75;2.20;;;16.10;99.90;;;;;;5013641;28;20561;-87
2022/10/25 03:11:01;;;;;;;10.55;1.85;;;16.20;99.90;;;;;;5020925;28;20053;-87
2022/10/25 03:13:28;;;;;;;7.53;1.95;;;16.10;99.90;;;;;;4996858;28;20411;-87
2022/10/25 03:15:54;;;;;;;7.50;2.00;;;16.30;99.90;;;;;;5008422;28;20038;-87
2022/10/25 03:18:22;;;;;;;8.88;2.08;;;16.10;99.90;;;;;;5012078;28;20048;-87
2022/10/25 03:20:49;;;;;;;8.93;1.77;;;16.10;99.90;;;;;;5011295;28;20185;-91
2022/10/25 03:23:17;;;;;;;7.22;1.95;;;16.10;99.90;;;;;;5016565;28;20042;-90
2022/10/25 03:25:45;;;;;;;16.00;2.47;;;16.10;99.90;;;;;;4979702;28;20078;-91
2022/10/25 03:28:12;;;;;;;11.23;1.85;;;16.10;99.90;;;;;;4986338;28;20125;-90
2022/10/25 03:30:42;;;;;;;10.88;2.17;;;16.10;99.90;;;;;;5021125;28;20041;-91
2022/10/25 03:33:09;;;;;;;12.15;2.00;;;16.20;99.90;;;;;;4999380;28;20056;-90
2022/10/25 03:35:36;;;;;;;10.32;2.08;;;16.20;99.90;;;;;;4990657;28;20054;-90
2022/10/25 03:38:03;;;;;;;15.73;2.45;;;16.20;99.90;;;;;;4988651;28;20061;-90
2022/10/25 03:40:30;;;;;;;9.95;1.92;;;16.10;99.90;;;;;;5020747;28;20104;-91
2022/10/25 03:42:58;;;;;;;7.78;1.73;;;16.20;99.90;;;;;;5002316;28;20034;-90
2022/10/25 03:45:25;;;;;;;10.50;2.28;;;16.20;99.90;;;;;;4999187;28;20038;-90
2022/10/25 03:47:52;;;;;;;10.35;2.00;;;16.20;99.90;;;;;;5002927;28;20137;-91
2022/10/25 03:50:19;;;;;;;9.52;2.30;;;16.20;99.90;;;;;;4991408;28;20061;-91
2022/10/25 03:52:46;;;;;;;6.38;1.77;;;16.20;99.90;;;;;;4991294;28;20041;-90
2022/10/25 03:55:13;;;;;;;8.77;1.90;;;16.20;99.90;;;;;;5015247;28;20049;-91
2022/10/25 03:57:40;;;;;;;11.93;2.08;;;16.10;99.90;;;;;;5017052;28;20050;-90
2022/10/25 04:00:10;;;;;;;14.18;1.55;;;16.20;99.90;;;;;;4985661;28;20043;-87
2022/10/25 04:02:39;;;;;;;16.30;2.08;;;16.10;99.90;;;;;;5007777;28;20135;-90
2022/10/25 04:05:07;;;;;;;8.68;1.88;;;16.20;99.90;;;;;;5008291;28;20060;-90
2022/10/25 04:07:34;;;;;;;13.85;2.38;;;16.10;99.90;;;;;;4993182;28;20064;-89
2022/10/25 04:10:01;;;;;;;12.25;2.72;;;16.10;99.90;;;;;;5011323;28;20060;-89
2022/10/25 04:12:28;;;;;;;12.43;1.90;;;16.10;99.90;;;;;;5015587;28;20144;-86
2022/10/25 04:14:55;;;;;;;14.60;2.17;;;16.10;99.90;;;;;;5014980;28;20033;-87
2022/10/25 04:17:23;;;;;;;7.78;1.92;;;16.10;99.90;;;;;;5019658;28;20044;-88
2022/10/25 04:19:50;;;;;;;12.52;2.13;;;16.10;99.90;;;;;;5008870;28;20087;-86
2022/10/25 04:22:17;;;;;;;16.77;2.47;;;16.00;99.90;;;;;;5007893;28;20058;-85
2022/10/25 04:24:44;;;;;;;8.85;1.92;;;16.00;99.90;;;;;;5013565;28;20057;-86
2022/10/25 04:27:11;;;;;;;10.25;1.80;;;16.00;99.90;;;;;;5010275;28;20049;-88
2022/10/25 04:29:38;;;;;;;10.15;2.03;;;16.00;99.90;;;;;;5008220;28;20042;-89
2022/10/25 04:32:05;;;;;;;10.35;2.40;;;16.00;99.90;;;;;;5008611;28;20052;-90
2022/10/25 04:34:34;;;;;;;11.07;2.35;;;16.00;99.90;;;;;;5011811;28;20207;-89
2022/10/25 04:37:01;;;;;;;11.77;2.10;;;16.00;99.90;;;;;;5011596;28;20049;-89
2022/10/25 04:39:30;;;;;;;11.48;2.05;;;16.00;99.90;;;;;;5008788;28;20056;-89
2022/10/25 04:41:57;;;;;;;12.25;2.30;;;16.00;99.90;;;;;;5008152;28;20120;-88
2022/10/25 04:44:24;;;;;;;12.90;2.33;;;16.00;99.90;;;;;;5009001;28;20048;-86
2022/10/25 04:46:51;;;;;;;10.60;2.05;;;16.00;99.90;;;;;;5013282;28;20052;-86
2022/10/25 04:49:18;;;;;;;11.68;2.55;;;16.00;99.90;;;;;;5008509;28;20120;-87
2022/10/25 04:51:47;;;;;;;14.15;2.38;;;16.00;99.90;;;;;;4988068;28;20104;-87
2022/10/25 04:54:14;;;;;;;14.20;1.92;;;16.00;99.90;;;;;;5012388;28;20490;-87
2022/10/25 04:56:41;;;;;;;8.98;1.90;;;16.00;99.90;;;;;;5021299;28;20417;-87
2022/10/25 04:59:09;;;;;;;12.85;2.35;;;16.10;99.90;;;;;;4991165;28;20089;-87
2022/10/25 05:01:36;;;;;;;13.43;2.85;;;16.10;99.90;;;;;;5010755;28;20415;-86
2022/10/25 05:04:03;;;;;;;9.55;2.28;;;16.10;99.90;;;;;;5009087;28;20414;-86
2022/10/25 05:06:30;;;;;;;12.15;2.28;;;16.10;99.90;;;;;;5030956;28;20055;-85
2022/10/25 05:09:19;;;;;;;9.30;2.20;;;16.10;99.90;;;;;;5010961;28;20077;-85
2022/10/25 05:11:46;;;;;;;11.32;2.22;;;16.10;99.90;;;;;;5010753;28;20048;-85
2022/10/25 05:14:13;;;;;;;11.85;2.35;;;16.10;99.90;;;;;;5003454;28;20041;-85
2022/10/25 05:16:39;;;;;;;12.30;2.78;;;16.10;99.90;;;;;;4999086;28;20081;-83
2022/10/25 05:19:06;;;;;;;8.75;1.95;;;16.10;99.90;;;;;;5008100;28;20046;-91
2022/10/25 05:21:34;;;;;;;11.25;2.05;;;16.10;99.90;;;;;;5008029;28;20042;-90
2022/10/25 05:24:02;;;;;;;10.80;2.17;;;16.10;99.90;;;;;;5010554;28;20044;-90
2022/10/25 05:26:30;;;;;;;13.93;2.50;;;16.10;99.90;;;;;;5018968;28;20050;-90
2022/10/25 05:28:57;;;;;;;11.25;2.60;;;16.10;99.90;;;;;;5010584;28;20414;-90
2022/10/25 05:31:25;;;;;;;8.85;2.13;;;16.10;99.90;;;;;;5008941;28;20046;-91
2022/10/25 05:33:54;;;;;;;11.73;2.00;;;16.10;99.90;;;;;;5015718;28;20038;-89
2022/10/25 05:36:21;;;;;;;6.82;1.85;;;16.10;99.90;;;;;;5010054;28;20053;-90
2022/10/25 05:38:48;;;;;;;10.82;2.25;;;16.10;99.90;;;;;;5011391;28;20050;-90
2022/10/25 05:41:17;;;;;;;8.43;2.05;;;16.00;99.90;;;;;;4993657;28;20060;-91
2022/10/25 05:43:45;;;;;;;8.63;1.88;;;16.00;99.90;;;;;;5017048;28;20042;-90
2022/10/25 05:46:15;;;;;;;11.23;2.78;;;16.10;99.90;;;;;;5011500;28;20068;-90
2022/10/25 05:48:42;;;;;;;17.65;2.63;;;16.00;99.90;;;;;;4998550;28;20052;-90
2022/10/25 05:51:11;;;;;;;9.00;2.10;;;16.00;99.90;;;;;;4992151;28;20046;-89
2022/10/25 05:53:42;;;;;;;8.63;2.22;;;16.00;99.90;;;;;;5009530;28;20491;-91
2022/10/25 05:56:09;;;;;;;10.55;2.38;;;16.00;99.90;;;;;;5018463;28;20058;-90
2022/10/25 05:58:37;;;;;;;9.30;2.05;;;16.00;99.90;;;;;;5010921;28;20050;-90
2022/10/25 06:01:04;;;;;;;11.68;2.53;;;16.00;99.90;;;;;;5010939;28;20449;-90
2022/10/25 06:03:31;;;;;;;10.00;2.40;;;16.00;99.90;;;;;;5013223;28;20531;-90
2022/10/25 06:06:00;;;;;;;10.77;2.40;;;16.10;99.90;;;;;;5000310;28;20052;-89
2022/10/25 06:08:27;;;;;;;9.07;2.30;;;16.10;99.90;;;;;;5003158;28;20042;-92
2022/10/25 06:10:54;;;;;;;11.98;2.60;;;16.10;99.90;;;;;;4995410;28;20050;-90
2022/10/25 06:13:22;;;;;;;10.90;2.70;;;16.10;99.90;;;;;;5012701;28;20044;-91
2022/10/25 06:15:50;;;;;;;7.93;1.90;;;16.10;99.90;;;;;;5008411;28;20422;-90
2022/10/25 06:18:17;;;;;;;13.88;2.53;;;16.10;99.90;;;;;;5009635;28;20121;-91
2022/10/25 06:20:44;;;;;;;13.90;2.70;;;16.00;99.90;;;;;;4992982;28;20050;-89
2022/10/25 06:23:11;;;;;;;12.75;2.47;;;16.10;99.90;;;;;;5012441;28;20128;-89
2022/10/25 06:25:38;;;;;;;9.95;2.30;;;16.10;99.90;;;;;;5014629;28;20042;-90
2022/10/25 06:28:05;;;;;;;8.60;2.40;;;16.10;99.90;;;;;;5010204;28;20049;-88
2022/10/25 06:30:32;;;;;;;11.05;2.53;;;16.10;99.90;;;;;;5019322;28;20071;-89
2022/10/25 06:33:00;;;;;;;7.40;2.40;;;16.10;99.90;;;;;;5016342;28;20054;-90
2022/10/25 06:35:28;;;;;;;14.90;2.67;;;16.10;99.90;;;;;;5013254;28;20038;-91
2022/10/25 06:37:59;;;;;;;13.15;2.90;;;16.10;99.90;;;;;;5009383;28;20054;-90
2022/10/25 06:40:26;;;;;;;;;;;16.10;99.90;;;;;;4992708;28;20793;-89
2022/10/25 06:42:54;;;;;;;10.95;3.00;;;16.00;99.90;;;;;;5008334;28;19925;-90
2022/10/25 06:45:22;;;;;;;10.98;2.40;;;16.10;99.90;;;;;;5013088;28;20050;-90
2022/10/25 06:47:49;;;;;;;19.63;2.63;;;16.10;99.90;;;;;;5023871;28;20045;-89
2022/10/25 06:50:17;;;;;;;10.95;2.63;;;16.10;99.90;;;;;;4996603;28;20052;-89
2022/10/25 06:52:44;;;;;;;12.63;3.10;;;16.10;99.90;;;;;;5018265;28;20041;-90
2022/10/25 06:55:11;;;;;;;15.02;3.05;;;16.10;99.90;;;;;;5008593;28;20064;-90
2022/10/25 06:57:38;;;;;;;13.52;2.88;;;16.00;99.90;;;;;;5009438;28;20050;-91
2022/10/25 07:00:06;;;;;;;10.38;2.25;;;16.10;99.90;;;;;;5009963;28;20050;-89
2022/10/25 07:02:32;;;;;;;12.25;2.17;;;16.10;99.90;;;;;;5020159;28;20041;-90
2022/10/25 07:04:59;;;;;;;13.27;2.05;;;16.10;99.90;;;;;;4990221;28;20128;-90
2022/10/25 07:07:28;;;;;;;9.93;2.55;;;16.10;99.90;;;;;;5010326;28;20045;-91
2022/10/25 07:09:55;;;;;;;16.17;2.92;;;16.10;99.90;;;;;;4999727;28;20125;-90
2022/10/25 07:12:22;;;;;;;8.45;2.33;;;16.10;99.90;;;;;;4988062;28;20160;-91
2022/10/25 07:14:49;;;;;;;10.30;2.10;;;16.10;99.90;;;;;;4989334;28;20093;-91
2022/10/25 07:17:15;;;;;;;8.23;2.45;;;16.10;99.90;;;;;;5001561;28;20401;-90
2022/10/25 07:19:42;;;;;;;14.02;2.85;;;16.10;99.90;;;;;;5020621;28;20046;-90
2022/10/25 07:22:09;;;;;;;10.95;2.25;;;16.10;99.90;;;;;;5010718;28;20494;-91
2022/10/25 07:24:38;;;;;;;8.43;2.25;;;16.10;99.90;;;;;;5004419;28;20046;-91
2022/10/25 07:27:05;;;;;;;12.60;2.55;;;16.10;99.90;;;;;;5023653;28;20069;-90
2022/10/25 07:29:32;;;;;;;11.77;2.60;;;16.10;99.90;;;;;;4995821;28;20165;-87
2022/10/25 07:31:58;;;;;;;13.70;2.47;;;16.10;99.90;;;;;;5009202;28;20141;-89
2022/10/25 07:34:26;;;;;;;14.23;2.95;;;16.10;99.90;;;;;;5007623;28;20663;-90
2022/10/25 07:36:53;;;;;;;10.65;2.30;;;16.10;99.90;;;;;;5024981;28;20152;-86
2022/10/25 07:39:19;;;;;;;11.93;2.20;;;16.00;99.90;;;;;;5009233;28;20041;-87
2022/10/25 07:41:48;;;;;;;12.85;3.03;;;16.00;99.90;;;;;;5008896;28;20052;-86
2022/10/25 07:44:15;;;;;;;8.95;2.22;;;16.00;99.90;;;;;;5008798;28;20132;-86
2022/10/25 07:46:42;;;;;;;14.73;2.85;;;16.00;99.90;;;;;;5007940;28;20080;-86
2022/10/25 07:49:09;;;;;;;12.48;2.90;;;16.00;99.90;;;;;;5011107;28;20056;-86
2022/10/25 07:51:36;;;;;;;8.05;2.50;;;16.10;99.90;;;;;;5020543;28;20496;-86
2022/10/25 07:54:03;;;;;;;10.43;2.40;;;16.10;99.90;;;;;;5028315;28;20136;-89
2022/10/25 07:56:30;;;;;;;11.70;2.72;;;16.10;99.90;;;;;;5020734;28;20045;-88
2022/10/25 07:58:58;;;;;;;9.23;2.90;;;16.00;99.90;;;;;;5022580;28;20037;-89
2022/10/25 08:01:27;;;;;;;9.75;2.75;;;16.10;99.90;;;;;;4990133;28;20747;-90
2022/10/25 08:03:55;;;;;;;7.60;2.22;;;16.10;99.90;;;;;;4994819;28;20077;-89
2022/10/25 08:06:23;;;;;;;8.77;2.50;;;16.10;99.90;;;;;;5004168;28;20041;-89
2022/10/25 08:08:50;;;;;;;12.20;2.55;;;16.10;99.90;;;;;;4992776;28;20407;-90
2022/10/25 08:11:18;;;;;;;17.08;2.67;;;16.10;99.90;;;;;;5007503;28;20045;-90
2022/10/25 08:13:44;;;;;;;11.95;2.83;;;16.10;99.90;;;;;;5005226;28;20045;-89
2022/10/25 08:16:13;;;;;;;9.40;2.78;;;16.20;99.90;;;;;;5006454;28;20515;-91
2022/10/25 08:18:40;;;;;;;17.50;3.28;;;16.20;99.90;;;;;;5003109;28;20049;-90
2022/10/25 08:21:06;;;;;;;18.40;3.00;;;16.20;99.90;;;;;;5003233;28;20533;-91
2022/10/25 08:23:33;;;;;;;13.40;2.85;;;16.20;99.90;;;;;;5009648;28;20053;-87
2022/10/25 08:26:01;;;;;;;9.07;2.38;;;16.20;99.90;;;;;;5004456;28;20112;-88
2022/10/25 08:28:29;;;;;;;10.00;2.88;;;16.20;99.90;;;;;;4990325;28;20133;-90
2022/10/25 08:30:56;;;;;;;8.70;2.58;;;16.20;99.90;;;;;;4999331;28;20068;-91
2022/10/25 08:33:26;;;;;;;8.52;2.63;;;16.20;99.90;;;;;;5017890;28;20058;-91
2022/10/25 08:35:53;;;;;;;13.65;2.78;;;16.20;99.90;;;;;;5016727;28;20054;-91
2022/10/25 08:38:20;;;;;;;11.32;2.80;;;16.30;99.90;;;;;;5013898;28;20052;-91
2022/10/25 08:40:51;;;;;;;12.57;2.67;;;16.30;99.90;;;;;;4995649;28;20046;-91
2022/10/25 08:43:46;;;;;;;9.10;2.42;;;16.40;99.90;;;;;;5007437;28;20049;-90
2022/10/25 08:46:16;;;;;;;9.93;2.67;;;16.40;99.90;;;;;;4993298;28;20052;-92
2022/10/25 08:48:46;;;;;;;8.97;2.53;;;16.40;99.90;;;;;;5007320;28;20183;-91
2022/10/25 08:51:20;;;;;;;11.00;2.40;;;16.50;99.90;;;;;;5018532;28;20148;-90
2022/10/25 08:53:49;;;;;;;10.95;2.50;;;16.50;99.90;;;;;;5013349;28;20057;-91
2022/10/25 08:56:17;;;;;;;8.38;2.15;;;16.40;99.90;;;;;;4999974;28;20483;-90
2022/10/25 08:58:48;;;;;;;8.35;2.33;;;16.50;99.90;;;;;;5011666;28;20069;-90
2022/10/25 09:01:19;;;;;;;11.18;2.45;;;16.50;99.90;;;;;;5013729;28;20041;-91
2022/10/25 09:03:47;;;;;;;8.30;2.47;;;16.50;99.90;;;;;;5001155;28;20125;-91
2022/10/25 09:06:20;;;;;;;8.10;2.45;;;16.50;99.90;;;;;;4998000;28;20052;-90
2022/10/25 09:08:58;;;;;;;8.95;2.10;;;16.50;99.90;;;;;;4993999;28;20077;-91
2022/10/25 09:11:35;;;;;;;9.65;2.38;;;16.50;99.90;;;;;;4993435;28;20112;-91
2022/10/25 09:14:06;;;;;;;15.45;2.63;;;16.50;99.90;;;;;;5007907;28;20151;-91
2022/10/25 09:16:36;;;;;;;11.27;2.10;;;16.50;99.90;;;;;;5005182;28;20061;-90
2022/10/25 09:19:09;;;;;;;8.57;2.33;;;16.60;99.90;;;;;;5028939;28;20157;-90
2022/10/25 09:21:42;;;;;;;13.50;2.05;;;16.60;99.90;;;;;;5014011;28;20049;-90
2022/10/25 09:24:17;;;;;;;10.55;2.20;;;16.60;99.90;;;;;;4995123;28;20144;-91
2022/10/25 09:26:48;;;;;;;14.10;2.47;;;16.60;99.90;;;;;;4991200;28;20903;-90
2022/10/25 09:29:21;;;;;;;11.73;2.50;;;16.60;99.90;;;;;;4995011;28;20055;-90
2022/10/25 09:31:52;;;;;;;9.57;2.00;;;16.70;99.90;;;;;;5019345;28;20041;-90
2022/10/25 09:34:22;;;;;;;8.98;2.05;;;16.70;99.90;;;;;;5006853;28;20129;-91
2022/10/25 09:36:52;;;;;;;9.90;2.50;;;16.70;99.90;;;;;;5018082;28;20506;-90
2022/10/25 09:39:22;;;;;;;11.52;2.53;;;16.70;99.90;;;;;;5000222;28;20053;-91
2022/10/25 09:41:51;;;;;;;10.70;2.65;;;16.70;99.90;;;;;;4989360;28;20133;-91
2022/10/25 09:44:36;;;;;;;7.22;2.55;;;16.80;99.90;;;;;;5018817;28;20045;-91
2022/10/25 09:47:12;;;;;;;15.40;2.92;;;16.80;99.90;;;;;;5009931;28;20041;-91
2022/10/25 09:49:45;;;;;;;14.10;2.50;;;16.80;99.90;;;;;;5009478;28;20060;-90
2022/10/25 09:52:17;;;;;;;11.70;2.15;;;16.80;99.90;;;;;;4986180;28;20054;-91
2022/10/25 09:54:47;;;;;;;8.07;2.30;;;16.80;99.90;;;;;;5003665;28;20049;-91
2022/10/25 09:57:14;;;;;;;14.60;2.55;;;16.80;99.90;;;;;;5012455;28;20049;-89
2022/10/25 09:59:48;;;;;;;11.85;2.28;;;16.80;99.90;;;;;;5000427;28;20050;-84
2022/10/25 10:02:19;;;;;;;10.82;2.10;;;16.80;99.90;;;;;;5019260;28;20069;-85
2022/10/25 10:04:47;;;;;;;11.40;2.60;;;16.90;99.90;;;;;;5009422;28;20556;-85
2022/10/25 10:07:18;;;;;;;10.10;2.67;;;16.90;99.90;;;;;;5010408;28;20060;-84
2022/10/25 10:09:46;;;;;;;14.52;2.25;;;16.90;99.90;;;;;;5010836;28;20046;-85
2022/10/25 10:12:18;;;;;;;9.70;2.25;;;16.90;99.90;;;;;;5009790;28;20049;-85
2022/10/25 10:14:48;;;;;;;13.00;2.40;;;16.90;99.90;;;;;;5009348;28;20061;-85
2022/10/25 10:17:17;;;;;;;9.68;2.70;;;17.00;99.90;;;;;;4991976;28;20053;-86
2022/10/25 10:19:44;;;;;;;9.85;2.40;;;16.90;99.90;;;;;;5009803;28;20160;-90
2022/10/25 10:22:14;;;;;;;9.73;2.38;;;17.00;99.90;;;;;;5009852;28;20042;-90
2022/10/25 10:24:42;;;;;;;7.10;1.98;;;17.00;99.90;;;;;;5009654;28;20072;-90
2022/10/25 10:27:11;;;;;;;9.90;2.22;;;17.00;99.90;;;;;;5010363;28;20060;-90
2022/10/25 10:29:55;;;;;;;6.75;1.90;;;17.00;99.90;;;;;;5010128;28;20129;-90
2022/10/25 10:32:24;;;;;;;8.13;2.08;;;17.00;99.90;;;;;;5010519;28;20498;-90
2022/10/25 10:34:52;;;;;;;9.20;2.03;;;16.90;99.90;;;;;;5008558;28;20137;-90
2022/10/25 10:37:22;;;;;;;12.82;2.03;;;17.00;99.90;;;;;;5010169;28;20041;-90
2022/10/25 10:39:51;;;;;;;13.95;2.47;;;17.00;99.90;;;;;;4996026;28;20418;-90
2022/10/25 10:42:19;;;;;;;7.38;2.33;;;17.00;99.90;;;;;;5010155;28;20054;-90
2022/10/25 10:45:01;;;;;;;13.27;2.30;;;17.00;99.90;;;;;;5007783;28;20057;-90
2022/10/25 10:47:32;;;;;;;9.43;2.40;;;17.00;99.90;;;;;;5010189;28;20049;-90
2022/10/25 10:49:59;;;;;;;8.30;1.83;;;17.00;99.90;;;;;;5009714;28;20042;-89
2022/10/25 10:52:31;;;;;;;8.90;1.92;;;17.00;99.90;;;;;;5009798;28;20509;-88
2022/10/25 10:54:58;;;;;;;8.00;1.92;;;17.00;99.90;;;;;;5006688;28;20566;-83
2022/10/25 10:57:28;;;;;;;10.18;2.15;;;17.00;99.90;;;;;;5008546;28;20371;-87
2022/10/25 10:59:59;;;;;;;7.85;2.17;;;17.00;99.90;;;;;;5010180;28;20126;-87
2022/10/25 11:02:33;;;;;;;5.82;1.95;;;17.10;99.90;;;;;;4972725;28;20054;-87
2022/10/25 11:05:00;;;;;;;8.30;2.13;;;17.10;99.90;;;;;;4972038;28;20054;-87
2022/10/25 11:07:32;;;;;;;10.68;2.30;;;17.00;99.90;;;;;;5009663;28;20046;-88
2022/10/25 11:10:18;;;;;;;10.43;2.40;;;17.00;99.90;;;;;;4992060;28;20145;-87
2022/10/25 11:12:45;;;;;;;12.35;2.40;;;17.00;99.90;;;;;;5007535;28;20056;-87
2022/10/25 11:15:13;;;;;;;8.98;2.15;;;17.10;99.90;;;;;;5008145;28;20658;-87
2022/10/25 11:17:44;;;;;;;11.70;2.42;;;17.10;99.90;;;;;;5009746;28;20050;-87
2022/10/25 11:20:21;;;;;;;9.25;2.40;;;17.10;99.90;;;;;;5004407;28;20060;-87
2022/10/25 11:22:58;;;;;;;9.43;2.25;;;17.00;99.90;;;;;;5000516;28;20069;-88
2022/10/25 11:25:32;;;;;;;7.30;2.35;;;17.10;99.90;;;;;;5007960;28;20506;-87
2022/10/25 11:28:17;;;;;;;10.32;2.55;;;17.10;99.90;;;;;;5009471;28;20056;-87
2022/10/25 11:30:50;;;;;;;7.10;2.20;;;17.10;99.90;;;;;;5008672;28;20129;-87
2022/10/25 11:33:42;;;;;;;10.32;2.17;;;17.20;99.90;;;;;;5009613;28;20067;-88
2022/10/25 11:36:35;;;;;;;7.60;1.90;;;17.20;99.90;;;;;;5000223;28;20134;-87
2022/10/25 11:39:16;;;;;;;6.65;1.77;;;17.20;99.90;;;;;;5008482;28;20152;-87
2022/10/25 11:41:45;;;;;;;10.77;1.75;;;17.20;99.90;;;;;;4991561;28;20060;-87
2022/10/25 11:44:27;;;;;;;5.07;1.60;;;17.40;99.90;;;;;;5008790;28;20136;-87
2022/10/25 11:47:00;;;;;;;6.85;1.80;;;17.30;99.90;;;;;;5009163;28;20037;-87
2022/10/25 11:49:37;;;;;;;6.65;1.48;;;17.30;99.90;;;;;;5008979;28;20056;-87
2022/10/25 11:52:24;;;;;;;5.90;1.60;;;17.30;99.90;;;;;;5009205;28;20054;-88
2022/10/25 11:54:57;;;;;;;4.88;1.65;;;17.40;99.90;;;;;;5007308;28;20569;-86
2022/10/25 11:57:34;;;;;;;7.30;2.30;;;17.40;99.90;;;;;;5009090;28;20053;-87
2022/10/25 12:00:06;;;;;;;5.70;1.45;;;17.30;99.90;;;;;;5008641;28;20050;-87
2022/10/25 12:02:46;;;;;;;9.15;1.67;;;17.40;99.90;;;;;;5009319;28;20140;-88
2022/10/25 12:05:26;;;;;;;5.85;1.40;;;17.40;99.90;;;;;;5007873;28;20046;-87
2022/10/25 12:08:02;;;;;;;5.88;1.50;;;17.40;99.90;;;;;;5008984;28;20048;-87
2022/10/25 12:10:34;;;;;;;8.38;1.70;;;17.40;99.90;;;;;;5013080;28;20056;-87
2022/10/25 12:13:03;;;;;;;7.07;1.50;;;17.40;99.90;;;;;;5012836;28;20132;-86
2022/10/25 12:15:34;;;;;;;7.32;1.30;;;17.40;99.90;;;;;;5011996;28;20042;-87
2022/10/25 12:18:02;;;;;;;7.60;1.50;;;17.40;99.90;;;;;;5012310;28;20049;-87
2022/10/25 12:20:30;;;;;;;4.85;1.10;;;17.40;99.90;;;;;;5012769;28;20048;-87
2022/10/25 12:22:58;;;;;;;4.95;1.33;;;17.40;99.90;;;;;;5012961;28;20050;-86
2022/10/25 12:25:55;;;;;;;7.60;1.30;;;17.50;99.90;;;;;;5011617;28;20128;-87
2022/10/25 12:28:29;;;;;;;7.88;1.60;;;17.40;99.90;;;;;;5012469;28;20124;-87
2022/10/25 12:30:59;;;;;;;12.13;1.45;;;17.40;99.90;;;;;;5012365;28;20799;-86
2022/10/25 12:33:33;;;;;;;7.82;1.40;;;17.50;99.90;;;;;;5012710;28;20045;-87
2022/10/25 12:36:04;;;;;;;5.85;1.20;;;17.50;99.90;;;;;;5009229;28;20454;-87
2022/10/25 12:38:34;;;;;;;8.18;1.75;;;17.40;99.90;;;;;;5010240;28;20046;-86
2022/10/25 12:41:07;;;;;;;8.52;1.60;;;17.40;99.90;;;;;;5011790;28;20046;-87
2022/10/25 12:43:37;;;;;;;5.22;1.60;;;17.50;99.90;;;;;;5012261;28;20042;-87
2022/10/25 12:46:22;;;;;;;6.70;1.38;;;17.50;99.90;;;;;;5000657;28;20053;-87
2022/10/25 12:49:14;;;;;;;6.45;1.42;;;17.50;99.90;;;;;;5012215;28;20052;-87
2022/10/25 12:52:02;;;;;;;6.63;1.50;;;17.50;99.90;;;;;;5011793;28;20041;-87
2022/10/25 12:55:10;;;;;;;5.25;1.40;;;17.50;99.90;;;;;;5009526;28;20058;-89
2022/10/25 12:57:44;;;;;;;6.45;1.33;;;17.60;99.90;;;;;;4979625;28;20069;-89
2022/10/25 13:00:25;;;;;;;9.52;2.10;;;17.60;99.90;;;;;;5012025;28;20522;-90